Time;durP1;ratioP1;P1;durP2;ratioP2;P2;SDS_P1;SDS_P2;PMS_P1;PMS_P2;Temp;Humidity;BMP_temperature;BMP_pressure;BME280_temperature;BME280_humidity;BME280_pressure;Samples;Min_cycle;Max_cycle;Signal;HPM_P1;HPM_P2
2022/05/09 00:01:48;;;;;;;11.67;8.70;;;;;;;12.05;86.98;96310.44;5011957;28;20232;-79
2022/05/09 00:04:13;;;;;;;9.57;7.97;;;;;;;12.06;86.96;96312.06;5011069;28;20267;-79
2022/05/09 00:06:39;;;;;;;10.10;8.40;;;;;;;11.97;86.91;96303.31;5029271;28;20296;-78
2022/05/09 00:09:05;;;;;;;9.00;8.20;;;;;;;11.95;87.23;96309.63;5029408;28;20545;-77
2022/05/09 00:11:31;;;;;;;9.83;8.83;;;;;;;11.86;87.33;96301.69;5021684;28;20193;-78
2022/05/09 00:13:56;;;;;;;10.83;9.13;;;;;;;11.80;87.65;96301.41;5009785;28;20187;-78
2022/05/09 00:16:22;;;;;;;9.67;7.93;;;;;;;11.73;87.20;96301.06;5008588;28;20251;-77
2022/05/09 00:18:47;;;;;;;10.47;8.40;;;;;;;11.67;87.70;96306.03;5003209;28;20202;-77
2022/05/09 00:21:13;;;;;;;8.13;7.10;;;;;;;11.61;87.76;96296.97;4992092;28;20269;-78
2022/05/09 00:23:38;;;;;;;9.97;8.37;;;;;;;11.55;87.64;96298.31;5008696;28;20617;-78
2022/05/09 00:26:03;;;;;;;9.63;8.20;;;;;;;11.45;88.31;96297.50;5007812;28;20563;-79
2022/05/09 00:28:29;;;;;;;8.87;7.93;;;;;;;11.36;88.55;96298.31;4993629;28;20179;-79
2022/05/09 00:30:55;;;;;;;10.60;8.63;;;;;;;11.25;88.95;96303.63;5008184;28;20643;-79
2022/05/09 00:33:20;;;;;;;10.23;7.87;;;;;;;11.18;89.45;96305.09;5008230;28;20179;-77
2022/05/09 00:35:46;;;;;;;8.47;7.60;;;;;;;11.12;89.59;96300.41;4988697;28;20198;-78
2022/05/09 00:38:11;;;;;;;9.23;6.93;;;;;;;11.07;89.65;96304.25;4992208;28;20217;-77
2022/05/09 00:40:38;;;;;;;8.43;7.57;;;;;;;11.07;89.88;96303.44;4992773;28;20179;-79
2022/05/09 00:43:30;;;;;;;8.27;7.50;;;;;;;11.04;90.17;96296.72;5009354;28;20183;-79
2022/05/09 00:45:56;;;;;;;8.37;7.63;;;;;;;10.89;90.40;96297.22;5009377;28;20191;-79
2022/05/09 00:48:21;;;;;;;10.00;7.77;;;;;;;10.82;90.80;96294.31;4994290;28;20609;-79
2022/05/09 00:50:47;;;;;;;10.33;8.53;;;;;;;10.81;91.10;96305.66;5009495;28;20218;-79
2022/05/09 00:53:12;;;;;;;9.23;8.33;;;;;;;10.75;91.40;96298.38;5009168;28;20203;-77
2022/05/09 00:55:45;;;;;;;10.07;8.97;;;;;;;10.70;91.28;96296.19;5007118;28;20191;-78
2022/05/09 00:58:14;;;;;;;9.43;8.13;;;;;;;10.67;91.27;96301.63;4993545;28;20270;-78
2022/05/09 01:00:41;;;;;;;8.97;7.87;;;;;;;10.64;91.58;96303.66;5009592;28;20171;-78
2022/05/09 01:03:10;;;;;;;9.07;7.97;;;;;;;10.60;91.79;96295.31;4992962;28;20193;-78
2022/05/09 01:05:37;;;;;;;8.77;7.70;;;;;;;10.56;91.35;96304.31;5008847;28;20279;-78
2022/05/09 01:08:03;;;;;;;8.20;7.30;;;;;;;10.54;91.41;96308.00;4993427;28;20274;-78
2022/05/09 01:10:31;;;;;;;9.00;8.10;;;;;;;10.49;91.58;96304.00;5008659;28;20237;-79
2022/05/09 01:13:03;;;;;;;10.43;8.63;;;;;;;10.47;91.94;96303.31;4992990;28;20187;-78
2022/05/09 01:15:28;;;;;;;9.70;8.80;;;;;;;10.47;92.24;96303.31;5007555;28;20249;-78
2022/05/09 01:17:54;;;;;;;9.07;8.17;;;;;;;10.44;92.15;96300.16;4993294;28;20179;-78
2022/05/09 01:20:19;;;;;;;10.50;8.87;;;;;;;10.39;92.65;96295.34;4992188;28;20183;-77
2022/05/09 01:22:45;;;;;;;9.27;8.37;;;;;;;10.44;92.74;96300.16;4985310;28;20183;-78
2022/05/09 01:25:13;;;;;;;9.97;8.97;;;;;;;10.40;93.09;96298.75;4984603;28;20215;-77
2022/05/09 01:27:42;;;;;;;11.37;9.07;;;;;;;10.35;93.13;96295.72;5021181;28;20179;-78
2022/05/09 01:30:09;;;;;;;9.87;8.97;;;;;;;10.32;93.50;96293.38;5006936;28;20199;-79
2022/05/09 01:32:41;;;;;;;10.37;9.27;;;;;;;10.32;92.95;96298.56;5040469;28;20254;-79
2022/05/09 01:35:20;;;;;;;11.43;10.27;;;;;;;10.32;93.82;96281.22;5025511;28;20203;-79
2022/05/09 01:37:48;;;;;;;12.33;10.17;;;;;;;10.32;93.54;96283.81;4991921;28;20266;-79
2022/05/09 01:40:14;;;;;;;10.77;9.83;;;;;;;10.35;93.09;96283.56;5023583;28;20653;-79
2022/05/09 01:42:42;;;;;;;11.30;10.10;;;;;;;10.36;93.94;96289.59;5024574;28;20447;-78
2022/05/09 01:45:09;;;;;;;10.63;9.53;;;;;;;10.33;93.75;96295.00;4991440;28;20210;-78
2022/05/09 01:50:18;;;;;;;10.93;9.80;;;;;;;10.31;94.27;96286.53;5010754;28;20209;-78
2022/05/09 01:52:44;;;;;;;13.03;10.33;;;;;;;10.31;95.07;96282.16;4991950;28;20250;-78
2022/05/09 01:55:09;;;;;;;10.73;9.40;;;;;;;10.32;94.44;96281.22;5007417;28;20263;-78
2022/05/09 01:57:35;;;;;;;12.10;10.90;;;;;;;10.31;94.70;96284.75;5008344;28;20277;-77
2022/05/09 02:00:04;;;;;;;12.03;10.93;;;;;;;10.31;94.47;96295.16;5005401;28;20600;-78
2022/05/09 02:02:30;;;;;;;12.27;11.07;;;;;;;10.29;94.73;96291.88;5008223;28;20186;-78
2022/05/09 02:04:55;;;;;;;11.10;9.80;;;;;;;10.27;95.11;96304.16;5007280;28;20680;-78
2022/05/09 02:07:23;;;;;;;12.63;11.40;;;;;;;10.23;95.39;96307.94;5008382;28;20205;-78
2022/05/09 02:09:49;;;;;;;11.50;10.40;;;;;;;10.28;95.59;96307.56;5008413;28;20231;-78
2022/05/09 02:12:15;;;;;;;12.60;11.27;;;;;;;10.40;95.80;96299.56;5025253;28;20175;-77
2022/05/09 02:14:41;;;;;;;13.30;11.40;;;;;;;10.37;96.21;96294.66;5007718;28;20194;-78
2022/05/09 02:17:08;;;;;;;13.30;11.90;;;;;;;10.41;96.03;96297.78;4992197;28;20241;-78
2022/05/09 02:19:34;;;;;;;13.93;12.47;;;;;;;10.36;95.64;96295.59;5007955;28;20175;-79
2022/05/09 02:22:00;;;;;;;13.43;11.80;;;;;;;10.31;95.88;96299.53;5007624;28;20179;-79
2022/05/09 02:24:27;;;;;;;12.60;11.30;;;;;;;10.30;95.76;96292.69;4988425;28;20639;-78
2022/05/09 02:26:52;;;;;;;13.63;12.17;;;;;;;10.27;96.18;96293.78;5004905;28;20172;-79
2022/05/09 02:29:18;;;;;;;14.03;11.80;;;;;;;10.23;96.65;96302.75;4991946;28;20213;-78
2022/05/09 02:31:43;;;;;;;14.53;12.37;;;;;;;10.25;96.76;96295.69;5005848;28;20183;-78
2022/05/09 02:34:09;;;;;;;13.93;12.53;;;;;;;10.29;96.49;96302.25;5022790;28;20240;-77
2022/05/09 02:36:34;;;;;;;13.60;12.20;;;;;;;10.32;96.98;96295.97;5007748;28;20182;-78
2022/05/09 02:38:59;;;;;;;13.23;11.83;;;;;;;10.36;96.51;96290.41;5008279;28;20175;-78
2022/05/09 02:41:25;;;;;;;13.43;12.03;;;;;;;10.38;96.99;96291.09;5008176;28;20178;-78
2022/05/09 02:43:50;;;;;;;12.57;11.37;;;;;;;10.50;97.49;96286.63;5010637;28;20190;-78
2022/05/09 02:46:16;;;;;;;12.37;11.03;;;;;;;10.44;97.11;96290.59;5011543;28;20277;-79
2022/05/09 02:48:41;;;;;;;13.03;11.70;;;;;;;10.47;97.37;96289.50;5011843;28;20175;-78
2022/05/09 02:51:08;;;;;;;14.37;12.87;;;;;;;10.55;97.18;96286.25;5011820;28;20176;-79
2022/05/09 02:53:35;;;;;;;13.67;12.27;;;;;;;10.57;97.45;96294.75;5011851;28;20167;-78
2022/05/09 02:56:00;;;;;;;15.00;12.70;;;;;;;10.57;97.34;96289.56;5028070;28;20195;-79
2022/05/09 02:58:26;;;;;;;14.33;12.43;;;;;;;10.61;96.88;96288.34;5011713;28;20179;-78
2022/05/09 03:00:51;;;;;;;13.03;11.80;;;;;;;10.66;97.37;96293.97;5011825;28;20191;-79
2022/05/09 03:06:00;;;;;;;16.80;12.90;;;;;;;10.67;97.27;96290.41;5013774;28;20226;-78
2022/05/09 03:08:26;;;;;;;13.17;11.77;;;;;;;10.65;96.96;96294.91;5028281;28;20183;-78
2022/05/09 03:10:51;;;;;;;12.27;10.97;;;;;;;10.65;96.95;96292.31;5011586;28;20214;-78
2022/05/09 03:13:16;;;;;;;12.77;11.57;;;;;;;10.72;96.87;96288.25;5011316;28;20179;-77
2022/05/09 03:15:44;;;;;;;13.77;12.37;;;;;;;10.71;96.72;96289.22;5010999;28;20207;-78
2022/05/09 03:18:11;;;;;;;13.27;12.07;;;;;;;10.62;96.72;96290.81;5027789;28;20183;-78
2022/05/09 03:20:36;;;;;;;13.33;12.03;;;;;;;10.59;96.69;96288.47;5029066;28;20176;-78
2022/05/09 03:23:04;;;;;;;12.90;11.70;;;;;;;10.60;97.23;96284.94;4995354;28;20249;-78
2022/05/09 03:25:30;;;;;;;13.80;12.40;;;;;;;10.55;97.28;96287.09;5010684;28;20239;-79
2022/05/09 03:27:56;;;;;;;13.60;12.30;;;;;;;10.52;97.16;96283.94;5027380;28;20217;-79
2022/05/09 03:30:21;;;;;;;12.87;11.47;;;;;;;10.55;97.08;96286.25;5010218;28;20210;-79
2022/05/09 03:32:47;;;;;;;13.57;12.17;;;;;;;10.50;96.74;96295.25;5010759;28;20187;-76
2022/05/09 03:35:14;;;;;;;12.93;11.73;;;;;;;10.56;97.09;96290.50;5009948;28;20203;-78
2022/05/09 03:37:40;;;;;;;12.83;11.53;;;;;;;10.56;96.96;96282.72;4994927;28;20213;-79
2022/05/09 03:40:06;;;;;;;13.37;12.07;;;;;;;10.57;96.91;96287.78;5011010;28;20203;-78
2022/05/09 03:42:32;;;;;;;12.40;11.20;;;;;;;10.59;96.73;96279.84;5011375;28;20221;-79
2022/05/09 03:44:57;;;;;;;13.60;12.30;;;;;;;10.59;96.70;96277.25;5027013;28;20266;-78
2022/05/09 03:47:22;;;;;;;14.33;12.03;;;;;;;10.61;96.94;96277.97;5011064;28;20194;-79
2022/05/09 03:49:48;;;;;;;12.80;11.57;;;;;;;10.63;97.08;96284.66;5043972;28;20672;-79
2022/05/09 03:52:13;;;;;;;14.03;11.83;;;;;;;10.60;97.30;96286.69;5009131;28;20171;-78
2022/05/09 03:54:39;;;;;;;13.57;12.27;;;;;;;10.56;96.83;96290.50;5004243;28;20210;-78
2022/05/09 03:57:04;;;;;;;13.77;12.40;;;;;;;10.57;97.21;96286.94;5016678;28;20191;-78
2022/05/09 03:59:30;;;;;;;13.33;11.93;;;;;;;10.62;96.88;96293.41;5044214;28;20205;-78
2022/05/09 04:01:56;;;;;;;12.80;11.57;;;;;;;10.69;96.59;96293.69;5011784;28;20184;-79
2022/05/09 04:04:21;;;;;;;12.90;11.63;;;;;;;10.70;96.34;96290.19;5012245;28;20273;-78
2022/05/09 04:06:49;;;;;;;13.23;11.97;;;;;;;10.78;95.81;96290.34;5010514;28;20183;-78
2022/05/09 04:09:14;;;;;;;12.97;11.67;;;;;;;10.93;95.64;96296.00;5008767;28;20213;-78
2022/05/09 04:11:40;;;;;;;12.37;11.00;;;;;;;11.03;94.90;96295.06;5023967;28;20178;-79
2022/05/09 04:14:05;;;;;;;13.47;12.10;;;;;;;11.14;94.65;96299.34;5011715;28;20407;-79
2022/05/09 04:19:15;;;;;;;12.90;11.60;;;;;;;11.13;93.99;96296.88;5044730;28;20202;-78
2022/05/09 04:21:40;;;;;;;13.63;11.70;;;;;;;11.13;94.07;96302.06;5010365;28;20186;-79
2022/05/09 04:24:05;;;;;;;12.50;11.30;;;;;;;11.20;93.91;96297.97;5010043;28;20194;-76
2022/05/09 04:26:31;;;;;;;13.20;11.80;;;;;;;11.18;93.85;96300.72;5008575;28;20182;-78
2022/05/09 04:28:57;;;;;;;13.93;11.17;;;;;;;11.25;93.17;96306.22;5026638;28;20182;-78
2022/05/09 04:31:22;;;;;;;12.97;11.13;;;;;;;11.35;92.28;96301.88;5012087;28;20269;-79
2022/05/09 04:33:48;;;;;;;11.83;10.73;;;;;;;11.40;92.36;96306.69;5010604;28;20229;-77
2022/05/09 04:36:13;;;;;;;12.27;11.00;;;;;;;11.37;92.33;96305.16;5008068;28;20230;-78
2022/05/09 04:38:41;;;;;;;12.43;11.20;;;;;;;11.51;92.00;96307.38;5023286;28;20181;-78
2022/05/09 04:41:06;;;;;;;13.20;11.40;;;;;;;11.75;91.03;96303.53;5005926;28;20178;-77
2022/05/09 04:43:33;;;;;;;12.87;11.57;;;;;;;11.71;91.02;96310.00;5008329;28;20616;-78
2022/05/09 04:46:00;;;;;;;12.33;11.13;;;;;;;12.28;90.17;96308.34;5026923;28;20221;-79
2022/05/09 04:48:25;;;;;;;11.37;10.27;;;;;;;13.90;79.78;96309.56;5011270;28;20623;-78
2022/05/09 04:50:50;;;;;;;9.83;8.93;;;;;;;15.83;75.70;96317.84;5027887;28;20238;-79
2022/05/09 04:53:16;;;;;;;9.30;8.50;;;;;;;17.80;63.51;96317.31;5007303;28;20186;-78
2022/05/09 04:55:42;;;;;;;8.80;7.80;;;;;;;19.34;56.38;96321.38;5024926;28;20305;-80
2022/05/09 04:58:11;;;;;;;10.48;7.80;;;;;;;19.95;54.75;96321.91;5025021;28;20680;-79
2022/05/09 05:00:36;;;;;;;7.93;7.13;;;;;;;20.70;52.81;96323.22;5008826;28;20714;-79
2022/05/09 05:03:02;;;;;;;8.38;7.60;;;;;;;20.42;51.46;96326.63;5008402;28;20186;-79
2022/05/09 05:05:28;;;;;;;7.90;7.20;;;;;;;20.97;50.14;96332.16;5007548;28;20209;-79
2022/05/09 05:07:53;;;;;;;8.38;7.57;;;;;;;21.63;48.58;96330.69;5008423;28;20186;-79
2022/05/09 05:10:19;;;;;;;7.50;6.88;;;;;;;22.22;46.09;96330.06;5024972;28;20202;-79
2022/05/09 05:12:45;;;;;;;7.55;6.85;;;;;;;22.92;43.28;96333.19;5024780;28;20170;-80
2022/05/09 05:15:11;;;;;;;7.45;6.75;;;;;;;22.26;45.17;96339.25;5007865;28;20230;-79
2022/05/09 05:17:37;;;;;;;8.32;7.35;;;;;;;21.45;46.41;96331.22;5007746;28;20175;-80
2022/05/09 05:20:04;;;;;;;9.07;7.18;;;;;;;22.04;45.14;96335.91;5009362;28;20174;-80
2022/05/09 05:22:30;;;;;;;7.57;6.88;;;;;;;22.69;44.17;96345.97;5009166;28;20183;-79
2022/05/09 05:24:55;;;;;;;7.43;6.72;;;;;;;22.55;45.00;96340.69;5024356;28;20268;-78
2022/05/09 05:27:21;;;;;;;8.85;7.50;;;;;;;21.88;45.29;96338.09;5021063;28;20275;-80
2022/05/09 05:29:47;;;;;;;7.32;6.72;;;;;;;23.43;42.85;96338.56;5059136;28;20205;-78
2022/05/09 05:32:21;;;;;;;8.23;6.53;;;;;;;21.45;47.29;96339.16;5059268;28;20224;-79
2022/05/09 05:34:47;;;;;;;7.30;6.70;;;;;;;20.99;47.57;96349.44;5059463;28;20802;-79
2022/05/09 05:37:12;;;;;;;7.07;6.47;;;;;;;20.88;47.75;96348.13;5042530;28;20208;-79
2022/05/09 05:39:38;;;;;;;7.97;7.28;;;;;;;22.27;46.03;96348.00;5024898;28;20166;-79
2022/05/09 05:42:05;;;;;;;7.63;6.93;;;;;;;22.56;44.34;96352.91;5059490;28;20185;-79
2022/05/09 05:44:31;;;;;;;7.35;6.70;;;;;;;23.36;42.82;96348.38;5060552;28;20197;-80
2022/05/09 05:46:56;;;;;;;8.05;7.25;;;;;;;22.17;45.33;96351.00;5041017;28;20189;-80
2022/05/09 05:49:21;;;;;;;6.70;6.20;;;;;;;24.14;41.63;96355.44;5041268;28;20205;-79
2022/05/09 05:51:46;;;;;;;8.48;6.93;;;;;;;22.86;43.08;96363.94;5031996;28;20197;-79
2022/05/09 05:54:12;;;;;;;7.28;6.68;;;;;;;23.80;41.07;96359.28;5004829;28;20190;-79
2022/05/09 05:56:37;;;;;;;7.78;7.00;;;;;;;23.25;42.48;96364.91;5022198;28;20182;-78
2022/05/09 05:59:04;;;;;;;7.22;6.63;;;;;;;23.18;42.72;96367.56;5039091;28;20189;-80
2022/05/09 06:01:29;;;;;;;8.15;7.10;;;;;;;24.60;40.23;96362.31;5022224;28;20178;-79
2022/05/09 06:03:55;;;;;;;7.97;7.25;;;;;;;24.06;41.66;96368.94;5028229;28;20213;-80
2022/05/09 06:06:20;;;;;;;7.07;6.47;;;;;;;25.77;37.93;96371.25;5039328;28;20201;-79
2022/05/09 06:08:46;;;;;;;8.45;7.47;;;;;;;24.33;40.07;96367.81;5015306;28;20350;-77
2022/05/09 06:11:13;;;;;;;6.93;6.32;;;;;;;25.58;36.33;96373.88;5019766;28;20185;-80
2022/05/09 06:13:38;;;;;;;7.28;6.68;;;;;;;25.94;36.83;96378.41;5013062;28;20179;-79
2022/05/09 06:16:04;;;;;;;7.57;6.88;;;;;;;25.66;36.68;96376.25;5014252;28;20299;-79
2022/05/09 06:18:29;;;;;;;7.65;6.95;;;;;;;25.24;36.83;96377.91;5023259;28;20201;-79
2022/05/09 06:20:54;;;;;;;9.88;7.40;;;;;;;24.94;37.78;96383.09;5026699;28;20209;-79
2022/05/09 06:23:20;;;;;;;7.10;6.47;;;;;;;25.41;36.25;96384.28;5023477;28;20179;-80
2022/05/09 06:25:47;;;;;;;7.18;6.47;;;;;;;25.77;37.20;96379.22;5029210;28;20224;-79
2022/05/09 06:28:14;;;;;;;7.30;6.60;;;;;;;25.96;36.40;96388.81;5029756;28;20189;-77
2022/05/09 06:30:39;;;;;;;7.97;7.25;;;;;;;25.61;37.10;96377.94;5024996;28;20214;-78
2022/05/09 06:33:05;;;;;;;7.25;6.63;;;;;;;25.73;36.06;96383.38;5038983;28;20709;-77
2022/05/09 06:35:30;;;;;;;7.80;6.35;;;;;;;25.65;36.29;96387.94;5020135;28;20194;-78
2022/05/09 06:38:01;;;;;;;7.03;6.40;;;;;;;24.78;38.37;96383.63;5028624;28;20700;-78
2022/05/09 06:40:28;;;;;;;6.97;6.38;;;;;;;25.96;36.14;96386.16;5018810;28;20187;-78
2022/05/09 06:42:55;;;;;;;7.63;6.78;;;;;;;25.69;36.64;96385.63;5019167;28;20198;-80
2022/05/09 06:45:21;;;;;;;8.27;7.45;;;;;;;24.69;38.68;96384.91;5004221;28;20187;-79
2022/05/09 06:47:48;;;;;;;7.85;7.15;;;;;;;24.41;39.09;96387.97;5033070;28;20186;-79
2022/05/09 06:50:14;;;;;;;7.32;6.63;;;;;;;25.91;36.62;96378.06;5031535;28;20202;-78
2022/05/09 06:52:39;;;;;;;8.45;7.50;;;;;;;27.03;33.80;96387.13;5016230;28;20179;-78
2022/05/09 06:55:05;;;;;;;7.47;6.53;;;;;;;25.17;38.08;96390.47;5009575;28;20205;-78
2022/05/09 06:57:30;;;;;;;7.20;6.60;;;;;;;25.48;37.55;96383.41;5043720;28;20181;-79
2022/05/09 06:59:55;;;;;;;7.35;6.75;;;;;;;26.39;36.49;96385.22;5007311;28;20191;-79
2022/05/09 07:02:21;;;;;;;7.13;6.57;;;;;;;25.30;37.57;96389.53;5001222;28;20179;-79
2022/05/09 07:04:46;;;;;;;8.50;6.93;;;;;;;25.94;36.90;96382.91;5003513;28;20276;-79
2022/05/09 07:07:11;;;;;;;8.48;7.32;;;;;;;25.79;36.66;96375.31;5034695;28;20786;-79
2022/05/09 07:09:37;;;;;;;7.68;6.85;;;;;;;25.74;36.15;96388.47;5036096;28;20194;-79
2022/05/09 07:12:03;;;;;;;7.40;6.53;;;;;;;26.03;36.72;96386.91;5018706;28;20183;-79
2022/05/09 07:14:28;;;;;;;8.65;7.03;;;;;;;26.54;35.76;96396.28;5015248;28;20198;-79
2022/05/09 07:16:53;;;;;;;7.88;7.15;;;;;;;25.53;37.70;96392.38;5023548;28;20251;-79
2022/05/09 07:19:19;;;;;;;7.43;6.75;;;;;;;23.97;40.40;96390.41;5021683;28;20170;-79
2022/05/09 07:21:44;;;;;;;8.85;7.30;;;;;;;24.98;38.64;96386.91;5032601;28;20179;-79
2022/05/09 07:24:10;;;;;;;7.13;6.53;;;;;;;24.48;40.61;96388.75;5011005;28;20197;-78
2022/05/09 07:26:36;;;;;;;8.65;7.88;;;;;;;24.55;38.79;96390.31;5029662;28;20174;-78
2022/05/09 07:29:02;;;;;;;9.80;7.45;;;;;;;24.78;39.02;96392.41;5006674;28;20182;-78
2022/05/09 07:31:27;;;;;;;8.77;7.97;;;;;;;24.34;40.10;96395.16;5022446;28;20183;-76
2022/05/09 07:33:53;;;;;;;9.13;7.70;;;;;;;24.31;40.42;96401.69;5027613;28;20197;-78
2022/05/09 07:36:18;;;;;;;8.10;7.30;;;;;;;24.23;40.59;96389.47;5039780;28;20574;-78
2022/05/09 07:38:43;;;;;;;10.05;7.53;;;;;;;23.53;41.84;96395.63;5037297;28;20189;-78
2022/05/09 07:41:09;;;;;;;7.55;6.90;;;;;;;23.06;43.52;96395.72;5037837;28;20175;-78
2022/05/09 07:43:34;;;;;;;8.40;7.53;;;;;;;23.33;42.85;96396.50;5017960;28;20616;-79
2022/05/09 07:46:00;;;;;;;7.32;6.70;;;;;;;23.14;42.94;96394.66;5011238;28;20286;-78
2022/05/09 07:48:27;;;;;;;8.38;7.45;;;;;;;22.17;46.40;96395.97;5009903;28;20262;-77
2022/05/09 07:50:54;;;;;;;7.75;7.05;;;;;;;22.11;46.16;96386.22;5029849;28;20206;-78
2022/05/09 07:53:22;;;;;;;8.23;6.97;;;;;;;22.68;45.22;96398.13;5036381;28;20186;-78
2022/05/09 07:55:48;;;;;;;8.18;7.47;;;;;;;22.47;45.57;96395.66;5015941;28;20198;-78
2022/05/09 07:58:13;;;;;;;9.55;6.95;;;;;;;20.58;50.27;96399.44;5023135;28;20386;-79
2022/05/09 08:00:40;;;;;;;8.93;7.68;;;;;;;19.77;52.68;96390.84;5030286;28;20178;-78
2022/05/09 08:03:06;;;;;;;7.75;7.05;;;;;;;20.41;52.67;96400.66;5027429;28;20192;-79
2022/05/09 08:05:32;;;;;;;8.25;7.00;;;;;;;19.93;53.50;96388.00;5040153;28;20194;-78
2022/05/09 08:07:58;;;;;;;7.20;6.53;;;;;;;19.80;53.07;96398.41;5015792;28;20179;-78
2022/05/09 08:10:23;;;;;;;9.07;8.15;;;;;;;19.57;55.34;96395.88;5049123;28;20650;-78
2022/05/09 08:12:49;;;;;;;8.68;7.88;;;;;;;19.22;56.74;96403.47;5015088;28;20185;-79
2022/05/09 08:15:17;;;;;;;7.72;6.97;;;;;;;19.33;57.26;96394.28;5018114;28;20202;-78
2022/05/09 08:17:45;;;;;;;8.63;7.15;;;;;;;19.69;56.22;96393.56;5041763;28;20181;-78
2022/05/09 08:20:12;;;;;;;7.50;6.78;;;;;;;19.82;56.62;96400.84;5035581;28;20179;-79
2022/05/09 08:22:37;;;;;;;8.30;7.15;;;;;;;19.73;55.62;96405.41;5032843;28;20291;-80
2022/05/09 08:25:05;;;;;;;10.35;8.27;;;;;;;19.60;54.94;96408.66;5022906;28;20749;-79
2022/05/09 08:27:30;;;;;;;9.20;7.82;;;;;;;18.93;58.49;96403.44;5044443;28;20225;-78
2022/05/09 08:29:56;;;;;;;9.68;7.70;;;;;;;19.20;57.05;96407.28;5011169;28;20193;-79
2022/05/09 08:32:23;;;;;;;8.57;7.70;;;;;;;18.86;58.35;96408.59;5033558;28;20205;-79
2022/05/09 08:34:51;;;;;;;8.57;7.68;;;;;;;19.39;58.50;96409.38;5046234;28;20683;-79
2022/05/09 08:37:18;;;;;;;13.32;8.65;;;;;;;19.66;56.64;96409.75;5035563;28;20178;-80
2022/05/09 08:39:43;;;;;;;8.63;7.82;;;;;;;19.65;56.62;96410.78;5036679;28;20170;-79
2022/05/09 08:42:14;;;;;;;9.77;7.15;;;;;;;19.57;55.41;96400.31;5021675;28;20181;-79
2022/05/09 08:44:52;;;;;;;7.35;6.38;;;;;;;19.73;54.80;96410.66;5018458;28;20275;-79
2022/05/09 08:47:41;;;;;;;9.02;7.28;;;;;;;19.63;55.96;96410.13;5026258;28;20191;-78
2022/05/09 08:50:24;;;;;;;8.85;7.68;;;;;;;19.29;55.83;96402.75;5008650;28;20205;-80
2022/05/09 08:52:55;;;;;;;9.27;6.57;;;;;;;19.50;55.87;96403.66;5032132;28;20181;-80
2022/05/09 08:55:32;;;;;;;8.25;6.13;;;;;;;19.47;53.74;96405.84;5035655;28;20205;-79
2022/05/09 08:58:23;;;;;;;10.98;7.05;;;;;;;19.21;54.21;96406.28;5036666;28;20189;-78
2022/05/09 09:00:49;;;;;;;9.27;7.18;;;;;;;19.43;54.89;96407.19;5044116;28;20179;-79
2022/05/09 09:03:28;;;;;;;13.05;7.53;;;;;;;19.17;54.46;96419.00;5013053;28;20208;-79
2022/05/09 09:05:54;;;;;;;8.18;6.80;;;;;;;18.90;54.80;96409.84;5001902;28;20748;-78
2022/05/09 09:08:26;;;;;;;7.82;7.13;;;;;;;19.26;54.51;96411.84;5017198;28;20198;-78
2022/05/09 09:11:10;;;;;;;7.95;7.20;;;;;;;19.06;54.92;96416.78;5020836;28;20236;-79
2022/05/09 09:13:57;;;;;;;11.40;7.10;;;;;;;19.41;54.73;96411.81;5027792;28;20198;-78
2022/05/09 09:16:48;;;;;;;6.85;5.95;;;;;;;19.20;53.70;96415.19;5008303;28;20226;-77
2022/05/09 09:19:54;;;;;;;9.20;7.10;;;;;;;19.63;54.67;96410.13;5028239;28;20174;-77
2022/05/09 09:22:50;;;;;;;8.75;7.07;;;;;;;19.11;53.54;96405.72;5028745;28;20686;-76
2022/05/09 09:25:36;;;;;;;5.60;5.05;;;;;;;19.26;52.98;96417.09;5030237;28;20206;-78
2022/05/09 09:28:06;;;;;;;9.20;6.13;;;;;;;19.61;53.43;96404.22;5044138;28;20640;-78
2022/05/09 09:30:32;;;;;;;8.68;5.80;;;;;;;19.62;53.93;96408.50;5000812;28;20217;-77
2022/05/09 09:33:05;;;;;;;7.00;6.30;;;;;;;19.92;53.46;96412.72;5046288;28;20214;-78
2022/05/09 09:35:39;;;;;;;7.00;6.32;;;;;;;20.08;52.70;96420.44;5004703;28;20683;-77
2022/05/09 09:38:36;;;;;;;7.43;6.68;;;;;;;20.08;55.15;96404.59;5022771;28;20178;-77
2022/05/09 09:41:23;;;;;;;7.25;6.45;;;;;;;20.35;52.78;96413.63;5027904;28;20182;-78
2022/05/09 09:43:49;;;;;;;8.30;6.60;;;;;;;20.01;53.30;96411.63;5008427;28;20213;-76
2022/05/09 09:46:15;;;;;;;7.57;6.45;;;;;;;20.37;52.53;96410.78;5022409;28;20233;-78
2022/05/09 09:48:40;;;;;;;7.70;7.00;;;;;;;20.09;52.17;96437.06;5034576;28;20186;-78
2022/05/09 09:51:10;;;;;;;6.80;6.20;;;;;;;19.70;50.68;96408.38;5037625;28;20258;-77
2022/05/09 09:53:50;;;;;;;7.57;6.38;;;;;;;19.75;49.32;96406.03;5005915;28;20205;-78
2022/05/09 09:56:22;;;;;;;6.63;6.03;;;;;;;19.74;50.84;96401.75;5046217;28;20706;-78
2022/05/09 09:58:49;;;;;;;6.65;6.03;;;;;;;19.76;50.34;96410.28;5054903;28;20217;-78
2022/05/09 10:01:22;;;;;;;8.45;6.30;;;;;;;19.53;51.40;96413.03;5024575;28;20188;-78
2022/05/09 10:04:13;;;;;;;7.75;6.75;;;;;;;20.07;51.18;96410.06;5024901;28;20230;-77
2022/05/09 10:07:02;;;;;;;9.38;6.97;;;;;;;20.33;50.30;96417.44;5008432;28;20188;-77
2022/05/09 10:09:36;;;;;;;8.65;7.28;;;;;;;20.46;50.58;96408.88;5025619;28;20237;-79
2022/05/09 10:12:23;;;;;;;7.47;6.50;;;;;;;20.71;49.81;96406.69;5012429;28;20174;-78
2022/05/09 10:14:49;;;;;;;8.52;6.97;;;;;;;20.99;47.07;96409.34;5025175;28;20202;-77
2022/05/09 10:17:31;;;;;;;7.18;5.80;;;;;;;20.83;47.34;96397.22;5022996;28;20757;-77
2022/05/09 10:19:58;;;;;;;6.20;5.50;;;;;;;20.88;47.30;96394.84;5021880;28;20195;-78
2022/05/09 10:25:20;;;;;;;7.68;6.95;;;;;;;20.27;47.99;96399.72;5030730;28;20225;-78
2022/05/09 10:27:47;;;;;;;7.78;5.88;;;;;;;20.28;48.85;96388.16;5044637;28;20197;-77
2022/05/09 10:30:22;;;;;;;6.32;5.82;;;;;;;20.31;50.05;96390.44;5037849;28;20248;-78
2022/05/09 10:32:52;;;;;;;7.30;6.43;;;;;;;19.88;48.81;96402.72;5038257;28;20184;-78
2022/05/09 10:35:33;;;;;;;8.77;6.68;;;;;;;20.35;48.49;96394.34;5009608;28;20206;-79
2022/05/09 10:38:21;;;;;;;8.00;6.40;;;;;;;20.03;50.08;96398.25;5006361;28;20202;-78
2022/05/09 10:40:55;;;;;;;8.38;6.82;;;;;;;20.30;50.11;96386.97;5017270;28;20205;-79
2022/05/09 10:43:28;;;;;;;9.07;6.72;;;;;;;20.59;49.19;96391.34;5027865;28;20178;-78
2022/05/09 10:45:53;;;;;;;6.75;6.15;;;;;;;20.55;47.20;96378.72;5020514;28;20260;-79
2022/05/09 10:48:21;;;;;;;7.05;6.05;;;;;;;20.80;48.63;96379.13;5031831;28;20934;-78
2022/05/09 10:51:04;;;;;;;6.38;5.53;;;;;;;20.94;46.20;96388.81;5041152;28;20221;-78
2022/05/09 10:53:35;;;;;;;7.05;6.35;;;;;;;20.66;46.42;96386.13;5031626;28;20185;-78
2022/05/09 10:56:38;;;;;;;8.20;6.53;;;;;;;20.56;47.19;96378.53;5037950;28;20262;-78
2022/05/09 10:59:08;;;;;;;8.35;5.38;;;;;;;21.20;47.59;96389.00;5058545;28;20177;-78
2022/05/09 11:01:42;;;;;;;9.38;6.05;;;;;;;21.13;47.09;96382.03;5034099;28;20173;-77
2022/05/09 11:04:09;;;;;;;6.70;6.10;;;;;;;21.31;47.75;96382.38;5019721;28;20202;-78
2022/05/09 11:06:53;;;;;;;7.80;6.50;;;;;;;21.68;46.62;96375.84;5013173;28;20201;-75
2022/05/09 11:09:34;;;;;;;7.75;5.70;;;;;;;21.75;45.28;96384.63;5001316;28;20214;-77
2022/05/09 11:12:29;;;;;;;6.75;5.80;;;;;;;21.43;44.80;96375.53;5027979;28;20182;-79
2022/05/09 11:15:05;;;;;;;6.88;5.75;;;;;;;21.25;45.69;96379.66;5014675;28;20695;-79
2022/05/09 11:17:49;;;;;;;8.57;6.82;;;;;;;20.89;47.49;96376.16;5034025;28;20251;-77
2022/05/09 11:20:31;;;;;;;6.88;5.80;;;;;;;20.50;47.33;96376.66;5047558;28;20179;-76
2022/05/09 11:23:15;;;;;;;6.97;6.38;;;;;;;20.67;47.42;96366.63;5032876;28;20186;-77
2022/05/09 11:26:03;;;;;;;7.50;6.82;;;;;;;21.04;48.32;96372.63;5036069;28;20225;-77
2022/05/09 11:29:01;;;;;;;6.35;5.80;;;;;;;20.98;47.05;96368.91;5045199;28;20896;-78
2022/05/09 11:32:02;;;;;;;7.05;6.35;;;;;;;21.47;45.99;96368.03;5025538;28;20651;-77
2022/05/09 11:34:45;;;;;;;9.43;6.32;;;;;;;21.37;46.34;96371.00;5034338;28;20220;-78
2022/05/09 11:37:35;;;;;;;7.30;6.63;;;;;;;21.87;45.13;96370.84;5008918;28;20190;-78
2022/05/09 11:40:35;;;;;;;8.13;7.20;;;;;;;21.31;46.07;96363.88;5021059;28;20182;-78
2022/05/09 11:43:41;;;;;;;7.53;6.28;;;;;;;21.58;46.05;96364.84;5040961;28;20272;-78
2022/05/09 11:46:28;;;;;;;6.65;6.05;;;;;;;21.86;44.97;96356.00;5038662;28;20243;-78
2022/05/09 11:49:21;;;;;;;6.88;5.93;;;;;;;21.60;45.19;96362.81;5018844;28;20178;-78
2022/05/09 11:51:48;;;;;;;6.55;5.90;;;;;;;21.75;45.16;96360.84;5010308;28;20187;-77